createdAt,value
2022-09-22T00:01:20.313Z,5.57
2022-09-22T00:03:50.691Z,6.13
2022-09-22T00:06:20.855Z,5.55
2022-09-22T00:08:51.402Z,4.85
2022-09-22T00:11:20.548Z,4.57
2022-09-22T00:13:52.157Z,5.43
2022-09-22T00:16:23.591Z,5.20
2022-09-22T00:18:51.352Z,4.15
2022-09-22T00:21:20.731Z,6.72
2022-09-22T00:23:48.969Z,4.18
2022-09-22T00:26:21.649Z,3.60
2022-09-22T00:28:51.194Z,3.50
2022-09-22T00:31:21.612Z,3.47
2022-09-22T00:33:50.124Z,4.30
2022-09-22T00:36:19.470Z,6.07
2022-09-22T00:38:50.443Z,4.30
2022-09-22T00:41:21.502Z,4.22
2022-09-22T00:43:51.257Z,8.23
2022-09-22T00:46:25.110Z,5.28
2022-09-22T00:48:57.977Z,4.80
2022-09-22T00:53:56.207Z,5.35
2022-09-22T00:56:29.489Z,4.35
2022-09-22T00:59:02.288Z,3.70
2022-09-22T01:01:31.396Z,3.88
2022-09-22T01:03:59.153Z,4.82
2022-09-22T01:06:29.633Z,4.75
2022-09-22T01:08:58.329Z,5.05
2022-09-22T01:11:29.140Z,4.47
2022-09-22T01:14:06.779Z,4.80
2022-09-22T01:16:49.715Z,9.30
2022-09-22T01:19:53.167Z,3.97
2022-09-22T01:22:55.719Z,6.20
2022-09-22T01:25:50.489Z,4.82
2022-09-22T01:28:36.258Z,4.00
2022-09-22T01:31:10.333Z,5.90
2022-09-22T01:33:44.408Z,5.57
2022-09-22T01:36:21.655Z,4.70
2022-09-22T01:39:00.749Z,5.72
2022-09-22T01:41:46.679Z,7.60
2022-09-22T01:44:18.789Z,5.28
2022-09-22T01:46:55.259Z,6.00
2022-09-22T01:49:25.057Z,6.22
2022-09-22T01:51:56.461Z,4.18
2022-09-22T01:54:27.447Z,6.10
2022-09-22T01:56:59.547Z,4.63
2022-09-22T01:59:31.176Z,6.03
2022-09-22T02:02:04.266Z,6.38
2022-09-22T02:04:37.008Z,5.18
2022-09-22T02:07:09.757Z,6.50
2022-09-22T02:09:40.997Z,4.80
2022-09-22T02:12:09.161Z,5.45
2022-09-22T02:14:36.964Z,4.78
2022-09-22T02:17:06.135Z,4.28
2022-09-22T02:19:38.521Z,4.80
2022-09-22T02:22:07.119Z,5.70
2022-09-22T02:24:36.986Z,3.88
2022-09-22T02:27:07.749Z,4.63
2022-09-22T02:29:45.680Z,4.93
2022-09-22T02:32:17.092Z,4.18
2022-09-22T02:34:45.727Z,4.78
2022-09-22T02:37:22.053Z,5.97
2022-09-22T02:40:01.450Z,4.93
2022-09-22T02:42:34.128Z,4.90
2022-09-22T02:45:08.435Z,3.58
2022-09-22T02:47:44.349Z,5.55
2022-09-22T02:50:14.784Z,5.10
2022-09-22T02:52:42.532Z,5.72
2022-09-22T02:55:11.332Z,4.72
2022-09-22T02:57:39.089Z,4.57
2022-09-22T03:00:08.080Z,6.40
2022-09-22T03:02:35.738Z,3.55
2022-09-22T03:05:05.670Z,4.05
2022-09-22T03:07:33.444Z,3.92
2022-09-22T03:10:01.072Z,4.15
2022-09-22T03:12:28.721Z,4.63
2022-09-22T03:14:56.408Z,6.78
2022-09-22T03:17:24.035Z,7.75
2022-09-22T03:19:51.945Z,4.57
2022-09-22T03:22:20.983Z,6.47
2022-09-22T03:24:48.613Z,8.88
2022-09-22T03:27:16.301Z,4.32
2022-09-22T03:29:43.921Z,7.10
2022-09-22T03:32:11.557Z,6.30
2022-09-22T03:34:39.262Z,6.72
2022-09-22T03:37:06.971Z,4.43
2022-09-22T03:39:36.036Z,10.93
2022-09-22T03:42:03.751Z,5.95
2022-09-22T03:44:31.751Z,8.10
2022-09-22T03:47:00.168Z,6.30
2022-09-22T03:49:28.379Z,5.32
2022-09-22T03:51:56.064Z,8.60
2022-09-22T03:54:23.964Z,4.68
2022-09-22T03:56:53.107Z,6.60
2022-09-22T03:59:20.778Z,5.85
2022-09-22T04:01:48.466Z,4.40
2022-09-22T04:04:16.208Z,3.25
2022-09-22T04:06:43.864Z,5.28
2022-09-22T04:09:11.835Z,9.93
2022-09-22T04:11:39.466Z,5.78
2022-09-22T04:14:08.493Z,4.47
2022-09-22T04:16:36.177Z,3.95
2022-09-22T04:19:04.951Z,5.15
2022-09-22T04:21:32.855Z,6.47
2022-09-22T04:24:00.601Z,10.65
2022-09-22T04:26:28.384Z,3.65
2022-09-22T04:28:56.122Z,3.33
2022-09-22T04:31:25.062Z,8.43
2022-09-22T04:33:52.756Z,3.40
2022-09-22T04:36:20.760Z,4.20
2022-09-22T04:38:48.407Z,3.30
2022-09-22T04:41:16.120Z,6.45
2022-09-22T04:43:43.732Z,4.47
2022-09-22T04:46:11.663Z,6.35
2022-09-22T04:48:40.713Z,4.10
2022-09-22T04:51:08.334Z,5.78
2022-09-22T04:53:36.142Z,6.13
2022-09-22T04:56:03.835Z,7.68
2022-09-22T04:58:31.850Z,6.70
2022-09-22T05:01:03.246Z,6.63
2022-09-22T05:03:31.009Z,6.95
2022-09-22T05:06:00.052Z,5.82
2022-09-22T05:08:27.774Z,7.70
2022-09-22T05:10:56.708Z,7.22
2022-09-22T05:13:25.422Z,4.45
2022-09-22T05:15:53.100Z,5.30
2022-09-22T05:18:21.102Z,6.20
2022-09-22T05:20:48.741Z,7.43
2022-09-22T05:23:17.868Z,6.35
2022-09-22T05:25:45.529Z,5.93
2022-09-22T05:28:13.559Z,6.90
2022-09-22T05:30:41.244Z,4.97
2022-09-22T05:33:08.953Z,6.38
2022-09-22T05:35:37.185Z,7.07
2022-09-22T05:38:05.056Z,9.75
2022-09-22T05:40:34.232Z,5.13
2022-09-22T05:43:01.887Z,13.15
2022-09-22T05:45:29.643Z,12.02
2022-09-22T05:47:57.328Z,11.98
2022-09-22T05:50:24.990Z,7.65
2022-09-22T05:52:52.875Z,9.05
2022-09-22T05:55:20.541Z,4.30
2022-09-22T05:57:49.513Z,8.63
2022-09-22T06:00:17.345Z,5.70
2022-09-22T06:02:45.615Z,12.07
2022-09-22T06:05:16.612Z,11.30
2022-09-22T06:07:45.905Z,7.13
2022-09-22T06:10:13.532Z,7.90
2022-09-22T06:12:41.337Z,8.73
2022-09-22T06:15:11.299Z,8.50
2022-09-22T06:17:38.956Z,12.57
2022-09-22T06:20:08.522Z,13.57
2022-09-22T06:22:36.391Z,12.80
2022-09-22T06:25:04.311Z,10.30
2022-09-22T06:27:32.014Z,9.18
2022-09-22T06:29:59.672Z,9.05
2022-09-22T06:32:28.704Z,7.18
2022-09-22T06:34:59.815Z,7.90
2022-09-22T06:37:27.462Z,9.48
2022-09-22T06:39:55.084Z,7.90
2022-09-22T06:42:22.777Z,11.45
2022-09-22T06:44:50.538Z,6.88
2022-09-22T06:47:18.349Z,16.05
2022-09-22T06:49:47.393Z,9.45
2022-09-22T06:52:15.124Z,7.90
2022-09-22T06:54:42.776Z,10.35
2022-09-22T06:57:12.051Z,8.43
2022-09-22T06:59:40.738Z,10.48
2022-09-22T07:02:08.719Z,12.98
2022-09-22T07:04:36.538Z,7.78
2022-09-22T07:07:05.941Z,8.02
2022-09-22T07:09:33.678Z,8.48
2022-09-22T07:12:01.539Z,7.63
2022-09-22T07:14:29.802Z,7.22
2022-09-22T07:16:57.457Z,9.18
2022-09-22T07:19:25.308Z,9.38
2022-09-22T07:21:53.144Z,10.77
2022-09-22T07:24:22.783Z,15.95
2022-09-22T07:26:51.238Z,9.98
2022-09-22T07:29:18.920Z,9.40
2022-09-22T07:31:46.631Z,5.80
2022-09-22T07:34:14.843Z,7.32
2022-09-22T07:36:42.593Z,11.48
2022-09-22T07:39:12.134Z,9.93
2022-09-22T07:41:44.677Z,6.55
2022-09-22T07:44:31.355Z,5.07
2022-09-22T07:46:59.677Z,7.00
2022-09-22T07:49:27.910Z,4.63
2022-09-22T07:51:57.429Z,10.00
2022-09-22T07:54:27.570Z,7.97
2022-09-22T07:56:58.522Z,5.70
2022-09-22T07:59:27.449Z,8.75
2022-09-22T08:01:55.730Z,5.50
2022-09-22T08:04:26.422Z,4.60
2022-09-22T08:06:56.425Z,4.75
2022-09-22T08:09:25.283Z,6.82
2022-09-22T08:11:53.125Z,5.57
2022-09-22T08:14:23.948Z,5.43
2022-09-22T08:16:53.141Z,10.23
2022-09-22T08:19:23.749Z,10.68
2022-09-22T08:21:54.107Z,5.38
2022-09-22T08:24:23.094Z,6.32
2022-09-22T08:26:53.237Z,10.13
2022-09-22T08:29:24.451Z,5.32
2022-09-22T08:31:52.257Z,7.25
2022-09-22T08:34:21.755Z,10.80
2022-09-22T08:36:49.828Z,4.60
2022-09-22T08:39:18.784Z,6.80
2022-09-22T08:41:57.846Z,3.85
2022-09-22T08:44:30.037Z,5.40
2022-09-22T08:47:01.488Z,3.42
2022-09-22T08:49:51.765Z,10.68
2022-09-22T08:52:28.052Z,5.70
2022-09-22T08:54:59.611Z,7.93
2022-09-22T08:57:49.282Z,6.57
2022-09-22T09:00:20.687Z,7.63
2022-09-22T09:02:55.552Z,5.78
2022-09-22T09:06:04.419Z,3.88
2022-09-22T09:16:14.440Z,4.13
2022-09-22T09:18:57.275Z,5.50
2022-09-22T09:21:26.673Z,6.82
2022-09-22T09:26:52.294Z,4.40
2022-09-22T09:29:25.211Z,4.38
2022-09-22T09:31:59.048Z,4.60
2022-09-22T09:34:29.917Z,4.40
2022-09-22T09:37:07.752Z,5.85
2022-09-22T09:39:38.695Z,9.85
2022-09-22T09:42:17.969Z,6.68
2022-09-22T09:44:46.620Z,7.38
2022-09-22T09:47:32.622Z,6.68
2022-09-22T09:50:00.620Z,4.30
2022-09-22T09:52:29.525Z,4.57
2022-09-22T09:54:57.815Z,6.30
2022-09-22T09:57:28.559Z,4.53
2022-09-22T10:00:32.714Z,4.95
2022-09-22T10:03:16.612Z,8.55
2022-09-22T10:08:18.643Z,6.07
2022-09-22T10:10:47.231Z,6.68
2022-09-22T10:13:36.767Z,7.00
2022-09-22T10:16:20.811Z,8.90
2022-09-22T10:18:51.478Z,4.53
2022-09-22T10:21:21.538Z,8.57
2022-09-22T10:23:50.445Z,4.97
2022-09-22T10:26:21.700Z,8.85
2022-09-22T10:29:16.929Z,5.15
2022-09-22T10:32:02.553Z,8.88
2022-09-22T10:34:33.837Z,6.95
2022-09-22T10:37:03.850Z,5.13
2022-09-22T10:39:38.037Z,7.43
2022-09-22T10:42:20.108Z,8.10
2022-09-22T10:44:49.041Z,7.07
2022-09-22T10:47:36.646Z,9.73
2022-09-22T10:50:30.493Z,5.10
2022-09-22T10:53:08.119Z,7.07
2022-09-22T10:55:38.486Z,5.88
2022-09-22T10:58:27.940Z,7.10
2022-09-22T11:01:14.029Z,6.10
2022-09-22T11:03:58.837Z,8.05
2022-09-22T11:07:00.344Z,7.53
2022-09-22T11:09:53.661Z,6.95
2022-09-22T11:12:32.296Z,7.63
2022-09-22T11:15:24.235Z,6.45
2022-09-22T11:18:17.689Z,6.80
2022-09-22T11:20:49.317Z,5.13
2022-09-22T11:23:52.348Z,7.30
2022-09-22T11:29:23.104Z,4.70
2022-09-22T11:32:01.696Z,6.35
2022-09-22T11:34:47.168Z,5.28
2022-09-22T11:37:28.243Z,6.43
2022-09-22T11:40:20.960Z,6.03
2022-09-22T11:45:39.339Z,5.65
2022-09-22T11:48:18.740Z,4.43
2022-09-22T11:50:59.858Z,5.28
2022-09-22T11:53:57.526Z,3.20
2022-09-22T11:56:39.867Z,2.70
2022-09-22T11:59:21.441Z,3.40
2022-09-22T12:01:50.833Z,4.20
2022-09-22T12:04:25.159Z,4.85
2022-09-22T12:06:56.763Z,3.40
2022-09-22T12:09:36.765Z,5.30
2022-09-22T12:12:07.468Z,2.85
2022-09-22T12:14:38.383Z,2.40
2022-09-22T12:17:10.403Z,3.25
2022-09-22T12:19:54.500Z,2.95
2022-09-22T12:22:28.947Z,3.60
2022-09-22T12:24:56.634Z,2.25
2022-09-22T12:27:27.397Z,1.63
2022-09-22T12:29:59.216Z,3.40
2022-09-22T12:32:34.173Z,2.45
2022-09-22T12:35:02.025Z,1.92
2022-09-22T12:37:32.749Z,2.10
2022-09-22T12:40:08.372Z,2.45
2022-09-22T12:42:39.757Z,2.08
2022-09-22T12:45:18.805Z,1.97
2022-09-22T12:47:50.920Z,1.60
2022-09-22T12:50:35.358Z,1.80
2022-09-22T12:53:06.525Z,1.77
2022-09-22T12:55:39.366Z,3.55
2022-09-22T12:58:41.788Z,3.38
2022-09-22T13:01:33.901Z,3.75
2022-09-22T13:04:14.525Z,2.08
2022-09-22T13:06:57.266Z,2.33
2022-09-22T13:09:28.528Z,2.00
2022-09-22T13:12:25.330Z,5.25
2022-09-22T13:15:25.028Z,4.60
2022-09-22T13:17:54.242Z,1.73
2022-09-22T13:20:26.625Z,2.95
2022-09-22T13:22:56.673Z,2.67
2022-09-22T13:25:27.808Z,3.53
2022-09-22T13:28:14.719Z,2.80
2022-09-22T13:30:45.207Z,4.03
2022-09-22T13:33:22.664Z,3.10
2022-09-22T13:35:57.088Z,1.65
2022-09-22T13:38:25.024Z,3.72
2022-09-22T13:40:53.393Z,2.58
2022-09-22T13:43:30.077Z,3.00
2022-09-22T13:45:59.767Z,1.83
2022-09-22T13:48:32.684Z,1.83
2022-09-22T13:51:03.864Z,4.40
2022-09-22T13:53:32.989Z,2.63
2022-09-22T13:56:01.339Z,4.75
2022-09-22T13:58:36.180Z,3.60
2022-09-22T14:01:14.166Z,3.83
2022-09-22T14:03:44.030Z,3.10
2022-09-22T14:06:14.792Z,2.63
2022-09-22T14:08:44.150Z,2.63
2022-09-22T14:11:16.241Z,3.97
2022-09-22T14:13:53.197Z,1.92
2022-09-22T14:16:25.296Z,2.22
2022-09-22T14:18:59.450Z,2.28
2022-09-22T14:21:27.299Z,2.72
2022-09-22T14:23:56.146Z,6.68
2022-09-22T14:26:33.492Z,3.25
2022-09-22T14:29:15.213Z,2.10
2022-09-22T14:31:46.505Z,5.50
2022-09-22T14:34:20.999Z,2.53
2022-09-22T14:36:51.935Z,4.88
2022-09-22T14:39:32.039Z,1.92
2022-09-22T14:42:08.977Z,2.13
2022-09-22T14:44:42.789Z,4.47
2022-09-22T14:47:21.586Z,1.65
2022-09-22T14:49:51.064Z,2.20
2022-09-22T14:52:27.048Z,4.82
2022-09-22T14:54:57.294Z,2.63
2022-09-22T14:57:28.127Z,3.10
2022-09-22T15:00:16.067Z,2.65
2022-09-22T15:02:47.048Z,5.78
2022-09-22T15:05:29.637Z,6.47
2022-09-22T15:07:58.629Z,3.65
2022-09-22T15:10:28.553Z,2.20
2022-09-22T15:12:57.415Z,2.35
2022-09-22T15:15:27.107Z,2.35
2022-09-22T15:18:15.725Z,1.50
2022-09-22T15:20:47.386Z,4.63
2022-09-22T15:23:18.375Z,2.13
2022-09-22T15:25:47.030Z,3.30
2022-09-22T15:28:16.798Z,7.03
2022-09-22T15:30:47.418Z,1.80
2022-09-22T15:33:16.230Z,2.85
2022-09-22T15:35:47.943Z,4.45
2022-09-22T15:38:19.335Z,4.43
2022-09-22T15:40:48.044Z,2.55
2022-09-22T15:43:19.698Z,2.00
2022-09-22T15:45:49.498Z,2.30
2022-09-22T15:48:24.470Z,1.75
2022-09-22T15:50:53.849Z,1.85
2022-09-22T15:53:23.000Z,1.83
2022-09-22T15:55:51.369Z,2.85
2022-09-22T15:58:22.790Z,1.67
2022-09-22T16:00:51.705Z,1.40
2022-09-22T16:03:23.889Z,3.13
2022-09-22T16:05:57.050Z,5.32
2022-09-22T16:08:28.781Z,4.55
2022-09-22T16:10:57.229Z,2.63
2022-09-22T16:13:25.039Z,1.67
2022-09-22T16:15:54.262Z,5.47
2022-09-22T16:18:21.961Z,3.50
2022-09-22T16:20:51.701Z,2.70
2022-09-22T16:23:20.777Z,3.05
2022-09-22T16:25:53.814Z,2.38
2022-09-22T16:28:21.479Z,4.22
2022-09-22T16:30:49.141Z,1.73
2022-09-22T16:33:16.822Z,2.50
2022-09-22T16:35:44.606Z,2.58
2022-09-22T16:38:12.546Z,3.67
2022-09-22T16:40:42.573Z,2.72
2022-09-22T16:43:10.883Z,2.42
2022-09-22T16:45:56.117Z,4.43
2022-09-22T16:48:23.861Z,4.63
2022-09-22T16:50:54.889Z,4.05
2022-09-22T16:53:24.166Z,3.45
2022-09-22T16:55:53.197Z,1.75
2022-09-22T16:58:20.926Z,2.72
2022-09-22T17:00:48.670Z,5.95
2022-09-22T17:03:18.795Z,4.35
2022-09-22T17:05:46.725Z,4.43
2022-09-22T17:08:14.397Z,7.63
2022-09-22T17:10:42.069Z,4.75
2022-09-22T17:13:11.047Z,2.78
2022-09-22T17:15:38.761Z,3.03
2022-09-22T17:18:06.446Z,2.97
2022-09-22T17:20:34.116Z,3.22
2022-09-22T17:23:01.929Z,5.22
2022-09-22T17:25:29.692Z,8.85
2022-09-22T17:27:57.966Z,9.57
2022-09-22T17:30:26.982Z,8.73
2022-09-22T17:32:54.981Z,5.72
2022-09-22T17:35:22.630Z,7.32
2022-09-22T17:37:52.145Z,4.05
2022-09-22T17:40:19.938Z,7.43
2022-09-22T17:42:48.177Z,4.85
2022-09-22T17:45:16.036Z,4.97
2022-09-22T17:48:02.433Z,6.40
2022-09-22T17:50:48.186Z,4.72
2022-09-22T17:53:33.076Z,5.85
2022-09-22T17:56:05.115Z,9.23
2022-09-22T17:58:32.830Z,8.35
2022-09-22T18:01:00.597Z,10.57
2022-09-22T18:03:29.667Z,18.60
2022-09-22T18:05:58.299Z,16.63
2022-09-22T18:08:26.193Z,15.95
2022-09-22T18:10:54.384Z,9.63
2022-09-22T18:13:22.023Z,10.85
2022-09-22T18:15:50.891Z,7.97
2022-09-22T18:18:18.569Z,7.45
2022-09-22T18:20:48.345Z,8.30
2022-09-22T18:23:16.677Z,8.23
2022-09-22T18:25:44.347Z,4.82
2022-09-22T18:28:12.129Z,7.05
2022-09-22T18:30:40.717Z,8.05
2022-09-22T18:33:08.339Z,6.13
2022-09-22T18:35:36.114Z,14.38
2022-09-22T18:38:05.261Z,8.52
2022-09-22T18:40:33.153Z,6.30
2022-09-22T18:43:00.887Z,10.55
2022-09-22T18:45:28.771Z,7.38
2022-09-22T18:47:59.053Z,14.52
2022-09-22T18:50:28.061Z,7.15
2022-09-22T18:52:56.776Z,6.35
2022-09-22T18:55:26.233Z,5.22
2022-09-22T18:57:54.087Z,5.65
2022-09-22T19:00:22.185Z,7.07
2022-09-22T19:02:50.350Z,7.05
2022-09-22T19:05:18.429Z,4.75
2022-09-22T19:07:47.712Z,5.10
2022-09-22T19:10:20.465Z,12.55
2022-09-22T19:15:19.339Z,8.90
2022-09-22T19:17:49.602Z,5.25
2022-09-22T19:20:20.922Z,4.80
2022-09-22T19:22:49.333Z,9.02
2022-09-22T19:25:17.928Z,7.75
2022-09-22T19:27:46.186Z,4.50
2022-09-22T19:30:16.935Z,9.25
2022-09-22T19:32:47.189Z,6.45
2022-09-22T19:35:15.053Z,7.82
2022-09-22T19:37:42.718Z,7.68
2022-09-22T19:40:13.042Z,5.65
2022-09-22T19:42:40.935Z,8.20
2022-09-22T19:45:09.419Z,4.82
2022-09-22T19:47:39.799Z,5.35
2022-09-22T19:50:08.898Z,5.85
2022-09-22T19:52:37.736Z,3.80
2022-09-22T19:55:06.055Z,4.47
2022-09-22T19:57:37.331Z,5.47
2022-09-22T20:00:05.903Z,6.38
2022-09-22T20:02:34.139Z,6.78
2022-09-22T20:05:03.171Z,6.18
2022-09-22T20:07:31.786Z,8.32
2022-09-22T20:10:02.313Z,5.38
2022-09-22T20:12:30.157Z,7.97
2022-09-22T20:14:57.852Z,4.95
2022-09-22T20:17:25.532Z,5.85
2022-09-22T20:19:54.002Z,5.32
2022-09-22T20:22:25.350Z,5.32
2022-09-22T20:24:57.719Z,6.90
2022-09-22T20:27:27.075Z,7.05
2022-09-22T20:29:57.449Z,5.15
2022-09-22T20:32:26.584Z,5.97
2022-09-22T20:34:55.679Z,5.03
2022-09-22T20:37:25.467Z,4.68
2022-09-22T20:39:53.377Z,7.55
2022-09-22T20:42:21.308Z,5.85
2022-09-22T20:44:49.438Z,10.55
2022-09-22T20:47:19.270Z,6.90
2022-09-22T20:49:51.620Z,9.30
2022-09-22T20:54:59.168Z,4.70
2022-09-22T20:57:29.126Z,5.03
2022-09-22T20:59:56.834Z,9.18
2022-09-22T21:02:24.836Z,10.20
2022-09-22T21:04:53.105Z,7.22
2022-09-22T21:07:20.789Z,8.27
2022-09-22T21:10:07.726Z,5.40
2022-09-22T21:12:35.941Z,7.85
2022-09-22T21:15:03.717Z,8.48
2022-09-22T21:17:32.822Z,8.73
2022-09-22T21:20:00.563Z,6.10
2022-09-22T21:22:28.433Z,9.32
2022-09-22T21:24:57.626Z,6.22
2022-09-22T21:27:25.677Z,6.55
2022-09-22T21:29:53.464Z,9.77
2022-09-22T21:32:21.148Z,12.02
2022-09-22T21:34:48.879Z,6.30
2022-09-22T21:37:16.587Z,9.95
2022-09-22T21:39:44.264Z,9.57
2022-09-22T21:44:39.113Z,5.73
2022-09-22T21:47:06.818Z,6.43
2022-09-22T21:49:34.652Z,7.38
2022-09-22T21:52:02.636Z,7.38
2022-09-22T21:54:31.131Z,7.43
2022-09-22T21:56:58.805Z,7.53
2022-09-22T21:59:26.623Z,8.25
2022-09-22T22:01:55.652Z,7.35
2022-09-22T22:04:23.332Z,9.20
2022-09-22T22:06:52.045Z,5.65
2022-09-22T22:09:21.209Z,7.93
2022-09-22T22:11:54.677Z,6.50
2022-09-22T22:14:24.109Z,7.28
2022-09-22T22:16:53.480Z,6.88
2022-09-22T22:19:25.812Z,8.23
2022-09-22T22:21:54.575Z,8.18
2022-09-22T22:24:35.689Z,4.82
2022-09-22T22:27:06.769Z,6.40
2022-09-22T22:29:36.388Z,5.78
2022-09-22T22:32:05.393Z,5.15
2022-09-22T22:37:00.411Z,5.93
2022-09-22T22:39:29.817Z,7.53
2022-09-22T22:41:57.441Z,5.30
2022-09-22T22:44:25.139Z,6.40
2022-09-22T22:46:52.793Z,5.65
2022-09-22T22:49:21.175Z,7.13
2022-09-22T22:51:49.941Z,8.38
2022-09-22T22:54:18.950Z,10.20
2022-09-22T22:56:50.323Z,8.40
2022-09-22T22:59:19.615Z,6.53
2022-09-22T23:01:47.329Z,7.47
2022-09-22T23:04:16.535Z,6.07
2022-09-22T23:06:44.816Z,7.68
2022-09-22T23:09:15.373Z,6.53
2022-09-22T23:11:45.809Z,5.65
2022-09-22T23:14:15.632Z,5.72
2022-09-22T23:16:45.121Z,5.35
2022-09-22T23:19:15.249Z,7.68
2022-09-22T23:21:43.477Z,7.78
2022-09-22T23:24:16.266Z,6.78
2022-09-22T23:26:46.146Z,6.03
2022-09-22T23:29:14.573Z,5.30
2022-09-22T23:31:42.934Z,5.90
2022-09-22T23:34:10.782Z,8.65
2022-09-22T23:36:41.786Z,6.78
2022-09-22T23:39:12.370Z,6.32
2022-09-22T23:41:40.159Z,7.63
2022-09-22T23:44:12.243Z,4.97
2022-09-22T23:46:39.963Z,5.90
2022-09-22T23:49:07.834Z,6.80
2022-09-22T23:51:35.472Z,5.30
2022-09-22T23:54:03.131Z,5.85
2022-09-22T23:56:30.788Z,5.97
2022-09-22T23:58:58.384Z,6.28
